Time;durP1;ratioP1;P1;durP2;ratioP2;P2;SDS_P1;SDS_P2;PMS_P1;PMS_P2;Temp;Humidity;BMP_temperature;BMP_pressure;BME280_temperature;BME280_humidity;BME280_pressure;Samples;Min_cycle;Max_cycle;Signal;HPM_P1;HPM_P2
2023/09/07 00:09:48;;;;;;;1.45;0.90;;;;;;;;;;20787493;28;20233;-69
2023/09/07 00:19:50;;;;;;;2.22;1.02;;;;;;;;;;20800240;28;20254;-69
2023/09/07 00:29:53;;;;;;;1.70;1.10;;;;;;;;;;20778865;28;20217;-69
2023/09/07 00:39:54;;;;;;;1.67;1.00;;;;;;;;;;20732720;28;20233;-69
2023/09/07 00:49:58;;;;;;;1.83;1.10;;;;;;;;;;20743803;28;20298;-69
2023/09/07 01:00:00;;;;;;;2.53;1.30;;;;;;;;;;20754089;28;20289;-70
2023/09/07 01:10:02;;;;;;;1.63;1.13;;;;;;;;;;20765526;28;20262;-69
2023/09/07 01:20:11;;;;;;;1.65;1.00;;;;;;;;;;20740224;28;20635;-69
2023/09/07 01:30:13;;;;;;;1.80;1.10;;;;;;;;;;20754000;28;20221;-69
2023/09/07 01:40:15;;;;;;;3.03;1.17;;;;;;;;;;20788868;28;20246;-70
2023/09/07 01:50:17;;;;;;;2.15;1.45;;;;;;;;;;20749823;28;20258;-69
2023/09/07 02:00:19;;;;;;;1.83;1.17;;;;;;;;;;20771607;28;20586;-69
2023/09/07 02:10:21;;;;;;;1.70;1.02;;;;;;;;;;20754907;28;20611;-69
2023/09/07 02:20:23;;;;;;;1.52;1.00;;;;;;;;;;20757721;28;20763;-69
2023/09/07 02:30:25;;;;;;;2.38;1.17;;;;;;;;;;20793608;28;20246;-69
2023/09/07 02:40:27;;;;;;;2.05;1.30;;;;;;;;;;20774392;28;20236;-69
2023/09/07 02:50:32;;;;;;;1.60;1.25;;;21.20;99.90;;;;;;20730318;28;20622;-69
2023/09/07 03:00:34;;;;;;;2.13;1.27;;;;;;;;;;20748022;28;20230;-70
2023/09/07 03:10:39;;;;;;;1.80;1.20;;;;;;;;;;20740983;28;20273;-69
2023/09/07 03:20:41;;;;;;;2.67;1.23;;;;;;;;;;20745207;28;20295;-71
2023/09/07 03:30:43;;;;;;;1.98;1.38;;;;;;;;;;20774278;28;20223;-70
2023/09/07 03:40:46;;;;;;;2.70;1.20;;;;;;;;;;20794075;28;20290;-66
2023/09/07 03:50:47;;;;;;;2.43;1.23;;;;;;;;;;20751584;28;20283;-66
2023/09/07 04:00:50;;;;;;;1.83;1.20;;;;;;;;;;20772903;28;20276;-66
2023/09/07 04:10:53;;;;;;;4.97;1.67;;;;;;;;;;20798271;28;20584;-66
2023/09/07 04:21:08;;;;;;;3.20;1.73;;;20.40;99.90;;;;;;20781234;28;20367;-66
2023/09/07 04:31:11;;;;;;;2.07;1.30;;;;;;;;;;20744629;28;20211;-66
2023/09/07 04:41:14;;;;;;;2.43;1.40;;;;;;;;;;20742468;28;20233;-65
2023/09/07 04:51:16;;;;;;;1.90;1.37;;;;;;;;;;20745446;28;20599;-65
2023/09/07 05:01:19;;;;;;;3.27;1.40;;;;;;;;;;20788382;28;20234;-64
2023/09/07 05:11:22;;;;;;;2.40;1.33;;;;;;;;;;20797998;28;20650;-64
2023/09/07 05:21:24;;;;;;;3.10;1.60;;;;;;;;;;20741787;28;20717;-65
2023/09/07 05:31:27;;;;;;;5.73;1.93;;;;;;;;;;20735034;28;20220;-66
2023/09/07 05:41:29;;;;;;;3.10;1.60;;;;;;;;;;20736978;28;20399;-65
2023/09/07 05:51:32;;;;;;;2.43;1.70;;;;;;;;;;20918041;23;20270;-75
2023/09/07 06:01:34;;;;;;;2.63;1.37;;;;;;;;;;20974642;28;20567;-74
2023/09/07 06:11:36;;;;;;;2.80;1.43;;;;;;;;;;20924779;28;20229;-74
2023/09/07 06:21:40;;;;;;;1.87;1.27;;;;;;;;;;20894241;28;20273;-75
2023/09/07 06:31:42;;;;;;;3.33;1.30;;;;;;;;;;20931360;28;20688;-74
2023/09/07 06:41:47;;;;;;;2.23;1.47;;;20.90;99.90;;;;;;20884429;28;20275;-74
2023/09/07 06:51:50;;;;;;;3.07;1.30;;;;;;;;;;20915936;28;20223;-74
2023/09/07 07:01:52;;;;;;;1.90;1.40;;;;;;;;;;20925488;28;20227;-73
2023/09/07 07:11:54;;;;;;;4.53;1.50;;;;;;;;;;20917897;28;20282;-73
2023/09/07 07:21:56;;;;;;;1.63;1.20;;;;;;;;;;20947075;28;20227;-73
2023/09/07 07:31:58;;;;;;;2.20;1.60;;;;;;;;;;20918453;28;20220;-74
2023/09/07 07:42:00;;;;;;;3.40;1.90;;;;;;;;;;20922933;28;20224;-73
2023/09/07 07:52:02;;;;;;;3.23;2.10;;;;;;;;;;20894432;28;20228;-73
2023/09/07 08:02:05;;;;;;;2.22;1.58;;;;;;;;;;20916288;28;20569;-73
2023/09/07 08:12:08;;;;;;;2.38;1.75;;;;;;;;;;20942373;28;20281;-73
2023/09/07 08:22:11;;;;;;;2.70;1.65;;;;;;;;;;20916602;28;20546;-73
2023/09/07 08:32:14;;;;;;;2.05;1.42;;;;;;;;;;20893247;28;20704;-73
2023/09/07 08:42:16;;;;;;;3.35;1.73;;;;;;;;;;20926821;28;20289;-73
2023/09/07 08:52:18;;;;;;;3.83;1.85;;;;;;;;;;20920693;28;20349;-73
2023/09/07 09:02:20;;;;;;;4.28;1.52;;;;;;;;;;20900952;28;20220;-72
2023/09/07 09:12:22;;;;;;;2.53;1.85;;;;;;;;;;20898931;28;20219;-73
2023/09/07 09:22:25;;;;;;;2.35;1.52;;;;;;;;;;20973489;28;20230;-72
2023/09/07 09:32:27;;;;;;;3.00;1.88;;;;;;;;;;20970994;28;20205;-73
2023/09/07 09:42:29;;;;;;;2.70;1.67;;;21.30;99.90;;;;;;20919026;28;20367;-74
2023/09/07 09:52:31;;;;;;;1.98;1.35;;;;;;;;;;20931689;28;20231;-73
2023/09/07 10:02:38;;;;;;;4.63;1.60;;;;;;;;;;20916452;28;20301;-73
2023/09/07 10:12:40;;;;;;;2.13;1.17;;;;;;;;;;20907103;28;20217;-73
2023/09/07 10:22:42;;;;;;;4.28;1.80;;;;;;;;;;20947964;28;20281;-73
2023/09/07 10:32:44;;;;;;;3.10;1.25;;;;;;;;;;20907647;28;20692;-73
2023/09/07 10:42:46;;;;;;;3.30;1.48;;;;;;;;;;20876513;28;20220;-73
2023/09/07 10:52:49;;;;;;;1.60;1.17;;;;;;;;;;20919697;28;20240;-74
2023/09/07 11:02:51;;;;;;;1.20;0.90;;;;;;;;;;20906465;28;20231;-74
2023/09/07 11:12:53;;;;;;;1.42;1.00;;;;;;;;;;20917514;28;20219;-74
2023/09/07 11:22:54;;;;;;;1.45;1.05;;;;;;;;;;20965455;28;20757;-73
2023/09/07 11:33:06;;;;;;;1.55;0.90;;;27.20;99.90;;;;;;20953804;28;20273;-73
2023/09/07 11:43:08;;;;;;;3.92;1.58;;;;;;;;;;20957903;28;20307;-73
2023/09/07 11:53:10;;;;;;;1.50;1.00;;;;;;;;;;20886275;23;20225;-77
2023/09/07 12:03:13;;;;;;;1.95;1.05;;;;;;;;;;20890183;28;20271;-77
2023/09/07 12:13:15;;;;;;;1.33;0.90;;;;;;;;;;20858218;28;20266;-77
2023/09/07 12:23:17;;;;;;;1.10;0.75;;;;;;;;;;20858012;28;20648;-77
2023/09/07 12:33:18;;;;;;;0.90;0.70;;;;;;;;;;20832269;28;20212;-77
2023/09/07 12:43:20;;;;;;;1.20;0.90;;;;;;;;;;20871956;28;20229;-77
2023/09/07 12:53:27;;;;;;;1.42;0.90;;;28.70;99.90;;;;;;20829625;28;20277;-75
2023/09/07 13:03:32;;;;;;;0.90;0.80;;;;;;;;;;20841706;28;20217;-77
2023/09/07 13:13:34;;;;;;;1.70;1.00;;;;;;;;;;20860551;28;20212;-76
2023/09/07 13:23:36;;;;;;;3.25;0.98;;;;;;;;;;20824156;28;20283;-77
2023/09/07 13:33:38;;;;;;;2.03;0.90;;;;;;;;;;20838713;28;20278;-77
2023/09/07 13:43:41;;;;;;;1.23;0.90;;;;;;;;;;20858636;28;20233;-77
2023/09/07 13:53:43;;;;;;;1.67;1.00;;;;;;;;;;20833972;28;20293;-76
2023/09/07 14:03:45;;;;;;;1.05;0.77;;;;;;;;;;20838981;28;20699;-76
2023/09/07 14:13:51;;;;;;;2.08;1.00;;;;;;;;;;20825769;28;20225;-76
2023/09/07 14:23:53;;;;;;;2.20;1.10;;;;;;;;;;20845336;28;20228;-76
2023/09/07 14:33:55;;;;;;;1.42;0.95;;;;;;;;;;20850365;28;20256;-75
2023/09/07 14:43:57;;;;;;;1.65;0.93;;;;;;;;;;20840579;28;20222;-76
2023/09/07 14:53:59;;;;;;;1.20;0.80;;;;;;;;;;20850728;28;20282;-76
2023/09/07 15:04:01;;;;;;;1.50;0.75;;;;;;;;;;20853795;28;20237;-76
2023/09/07 15:14:05;;;;;;;1.05;0.80;;;;;;;;;;20842925;28;20282;-76
2023/09/07 15:24:07;;;;;;;1.08;0.70;;;;;;;;;;20849886;28;20669;-75
2023/09/07 15:34:09;;;;;;;2.17;1.05;;;;;;;;;;20855061;28;20207;-75
2023/09/07 15:44:11;;;;;;;1.13;0.80;;;;;;;;;;20861325;28;20223;-75
2023/09/07 15:54:13;;;;;;;3.03;0.85;;;;;;;;;;20833916;28;20770;-75
2023/09/07 16:04:15;;;;;;;2.15;1.10;;;;;;;;;;20821831;28;20275;-75
2023/09/07 16:14:16;;;;;;;1.38;0.85;;;;;;;;;;20818836;28;20569;-75
2023/09/07 16:24:18;;;;;;;4.13;1.13;;;;;;;;;;20818632;28;20707;-75
2023/09/07 16:34:20;;;;;;;2.75;0.85;;;;;;;;;;20883210;28;20213;-75
2023/09/07 16:44:22;;;;;;;2.80;0.90;;;;;;;;;;20820889;28;20286;-75
2023/09/07 16:54:24;;;;;;;4.15;1.00;;;;;;;;;;20858769;28;20217;-75
2023/09/07 17:04:31;;;;;;;2.38;1.17;;;28.40;99.90;;;;;;20875605;28;20225;-75
2023/09/07 17:14:33;;;;;;;3.22;1.35;;;;;;;;;;20874240;28;20357;-75
2023/09/07 17:24:35;;;;;;;3.67;1.70;;;;;;;;;;20857470;28;20298;-74
2023/09/07 17:34:37;;;;;;;5.82;4.75;;;;;;;;;;20848235;28;20617;-75
2023/09/07 17:44:38;;;;;;;1.90;1.35;;;;;;;;;;20855261;23;20228;-73
2023/09/07 17:54:41;;;;;;;1.85;1.13;;;;;;;;;;20948540;28;20593;-73
2023/09/07 18:04:43;;;;;;;4.43;2.30;;;;;;;;;;20885051;28;20244;-73
2023/09/07 18:14:44;;;;;;;4.57;1.48;;;;;;;;;;20884177;28;20217;-72
2023/09/07 18:24:46;;;;;;;1.73;1.10;;;;;;;;;;20871071;28;20224;-72
2023/09/07 18:34:48;;;;;;;3.47;1.40;;;;;;;;;;20860555;28;20225;-72
2023/09/07 18:44:52;;;;;;;3.90;1.23;;;26.90;99.90;;;;;;20897274;28;20236;-72
2023/09/07 18:54:55;;;;;;;1.83;1.05;;;;;;;;;;20870722;28;20293;-72
2023/09/07 19:04:57;;;;;;;2.20;1.10;;;;;;;;;;20888455;28;20296;-72
2023/09/07 19:14:59;;;;;;;4.03;1.60;;;;;;;;;;20855037;28;20224;-71
2023/09/07 19:25:01;;;;;;;2.05;1.15;;;;;;;;;;20800354;28;20748;-71
2023/09/07 19:35:04;;;;;;;2.13;1.30;;;;;;;;;;20856048;28;20222;-75
2023/09/07 19:45:06;;;;;;;5.30;1.90;;;;;;;;;;20844774;28;20217;-73
2023/09/07 19:55:08;;;;;;;3.60;1.52;;;;;;;;;;20849817;28;20291;-74
2023/09/07 20:05:10;;;;;;;5.20;1.52;;;;;;;;;;20872761;28;20702;-73
2023/09/07 20:15:14;;;;;;;10.48;1.95;;;;;;;;;;20893599;28;20233;-71
2023/09/07 20:25:20;;;;;;;1.90;1.10;;;;;;;;;;20836341;28;20224;-72
2023/09/07 20:35:22;;;;;;;3.78;1.55;;;;;;;;;;20825625;28;20290;-74
2023/09/07 20:45:27;;;;;;;3.17;1.63;;;25.50;99.90;;;;;;20851335;28;20229;-70
2023/09/07 20:55:28;;;;;;;4.05;1.67;;;;;;;;;;20862493;28;20265;-71
2023/09/07 21:05:30;;;;;;;2.65;1.33;;;;;;;;;;20868766;28;20221;-71
2023/09/07 21:15:32;;;;;;;3.15;1.63;;;;;;;;;;20859344;28;20646;-71
2023/09/07 21:25:34;;;;;;;4.47;1.60;;;;;;;;;;20823569;28;20224;-72
2023/09/07 21:35:35;;;;;;;2.28;1.40;;;;;;;;;;20845014;28;20216;-72
2023/09/07 21:45:37;;;;;;;3.03;1.30;;;;;;;;;;20829221;28;20274;-72
2023/09/07 21:55:39;;;;;;;1.60;1.15;;;;;;;;;;20861269;28;20228;-72
2023/09/07 22:05:41;;;;;;;3.83;1.80;;;;;;;;;;20877883;28;20619;-71
2023/09/07 22:15:42;;;;;;;2.20;1.40;;;;;;;;;;20842216;28;20230;-72
2023/09/07 22:25:47;;;;;;;1.60;1.27;;;24.30;99.90;;;;;;20835715;28;20228;-73
2023/09/07 22:35:49;;;;;;;1.88;1.27;;;;;;;;;;20827349;28;20229;-73
2023/09/07 22:45:51;;;;;;;2.65;1.38;;;;;;;;;;20847025;28;20218;-72
2023/09/07 22:55:53;;;;;;;2.58;1.40;;;;;;;;;;20829005;28;20209;-70
2023/09/07 23:05:55;;;;;;;3.00;1.50;;;;;;;;;;20850756;28;20289;-72
2023/09/07 23:15:57;;;;;;;3.10;1.50;;;;;;;;;;20837231;28;20662;-73
2023/09/07 23:25:58;;;;;;;1.85;1.10;;;;;;;;;;20833249;28;20218;-74
2023/09/07 23:36:00;;;;;;;2.45;1.17;;;;;;;;;;20823030;28;20760;-72
2023/09/07 23:46:02;;;;;;;2.40;1.40;;;;;;;;;;20858627;28;20706;-72
2023/09/07 23:56:04;;;;;;;1.80;1.45;;;;;;;;;;20913166;22;20228;-71
